Beech Grove, Indiana
Current Conditions -  °F | °C
As of 8:54 AM on Thursday 30 Oct 2014 (Local Time) from KIND Reporting Station
Few Clouds Few Clouds  
Wind Chill: 37°   Ceiling: Unl
Heat Index: 37°   Visibility: 10mi
Dew Point: 31°   Wind: 0mph
Humidity: 79%   Direction: NA
Pressure: 30.17"   Gusts: NA
Location:  39.72°N, 86.09°W
Report Text: KIND 301254Z 00000KT 10SM R05L/6000VP6000FT FEW035 FEW200 03/M01 A3017 RMK AO2 SLP221 T00281006 $
Loading
Personal Weather Stations






























Interactive Weather Map
Tropical Storm Tracking
New forecast layout! Learn more

10-Day Weather Forecast

Advertisements
Track Severe Weather on mobile